Time;durP1;ratioP1;P1;durP2;ratioP2;P2;SDS_P1;SDS_P2;PMS_P1;PMS_P2;Temp;Humidity;BMP_temperature;BMP_pressure;BME280_temperature;BME280_humidity;BME280_pressure;Samples;Min_cycle;Max_cycle;Signal;HPM_P1;HPM_P2
2023/09/07 04:31:35;;;;;;;0.03;0.03;;;22.90;78.50;;;;;;5376419;23;20137;-79
2023/09/07 04:34:02;;;;;;;0.00;0.00;;;22.90;78.70;;;;;;4960856;28;20062;-79
2023/09/07 04:36:27;;;;;;;0.10;0.10;;;22.90;78.80;;;;;;4969527;28;20019;-79
2023/09/07 04:38:53;;;;;;;0.10;0.10;;;22.90;78.60;;;;;;4957092;29;20145;-79
2023/09/07 04:41:19;;;;;;;0.00;0.00;;;22.90;78.60;;;;;;4967559;28;20433;-79
2023/09/07 04:43:44;;;;;;;0.00;0.00;;;22.80;78.40;;;;;;4959383;28;20031;-79
2023/09/07 04:46:11;;;;;;;0.20;0.10;;;22.80;78.50;;;;;;4976708;28;20136;-79
2023/09/07 04:48:37;;;;;;;0.10;0.10;;;22.80;78.50;;;;;;4950663;28;20043;-78
2023/09/07 04:51:04;;;;;;;0.00;0.00;;;22.80;78.60;;;;;;4963884;28;20039;-76
2023/09/07 04:53:34;;;;;;;0.10;0.10;;;22.70;78.80;;;;;;4920970;29;20112;-78
2023/09/07 04:56:01;;;;;;;0.10;0.10;;;22.80;78.70;;;;;;4937984;29;20769;-85
2023/09/07 04:58:27;;;;;;;0.00;0.00;;;22.70;78.60;;;;;;4938015;29;20153;-81
2023/09/07 05:00:53;;;;;;;0.10;0.10;;;22.80;78.50;;;;;;4938882;29;20024;-81
2023/09/07 05:03:19;;;;;;;0.10;0.10;;;22.70;78.60;;;;;;4956657;29;20059;-81
2023/09/07 05:05:44;;;;;;;0.20;0.10;;;22.70;78.70;;;;;;4957238;29;20726;-83
2023/09/07 05:08:10;;;;;;;0.05;0.05;;;22.70;78.80;;;;;;4952173;29;20074;-78
2023/09/07 05:10:37;;;;;;;0.03;0.03;;;22.70;78.60;;;;;;4939753;29;20613;-80
2023/09/07 05:13:03;;;;;;;0.00;0.00;;;22.70;78.70;;;;;;4938261;29;20090;-80
2023/09/07 05:15:29;;;;;;;0.00;0.00;;;22.60;79.00;;;;;;4921061;29;20032;-80
2023/09/07 05:17:55;;;;;;;0.00;0.00;;;22.50;79.10;;;;;;4920795;29;20038;-83
2023/09/07 05:20:21;;;;;;;0.05;0.05;;;22.40;79.40;;;;;;4937157;29;20031;-78
2023/09/07 05:22:47;;;;;;;0.00;0.00;;;22.50;79.60;;;;;;4941179;28;20020;-77
2023/09/07 05:25:13;;;;;;;0.13;0.10;;;22.40;79.60;;;;;;4934679;29;20126;-77
2023/09/07 05:27:39;;;;;;;0.00;0.00;;;22.40;79.70;;;;;;4937996;29;20038;-77
2023/09/07 05:30:06;;;;;;;0.00;0.00;;;22.40;79.70;;;;;;4941240;29;20028;-78
2023/09/07 05:32:31;;;;;;;0.00;0.00;;;22.40;79.70;;;;;;4946589;29;20049;-77
2023/09/07 05:34:57;;;;;;;0.10;0.10;;;22.40;79.80;;;;;;4960730;29;20027;-77
2023/09/07 05:37:23;;;;;;;0.00;0.00;;;22.40;79.60;;;;;;4943501;29;20031;-77
2023/09/07 05:39:48;;;;;;;0.10;0.10;;;22.50;79.50;;;;;;4961900;28;20031;-77
2023/09/07 05:42:14;;;;;;;0.30;0.10;;;22.40;79.60;;;;;;4958730;29;20126;-77
2023/09/07 05:44:40;;;;;;;0.10;0.10;;;22.40;79.60;;;;;;4949444;29;20028;-79
2023/09/07 05:47:06;;;;;;;0.00;0.00;;;22.50;79.40;;;;;;4957658;29;20477;-77
2023/09/07 05:49:31;;;;;;;0.10;0.10;;;22.50;79.40;;;;;;4945404;29;20035;-77
2023/09/07 05:51:57;;;;;;;0.03;0.03;;;22.50;79.30;;;;;;4941181;29;20057;-77
2023/09/07 05:54:23;;;;;;;0.00;0.00;;;22.50;79.30;;;;;;4940552;29;20054;-77
2023/09/07 05:56:48;;;;;;;0.00;0.00;;;22.50;79.40;;;;;;4941758;29;20087;-77
2023/09/07 05:59:14;;;;;;;0.00;0.00;;;22.60;79.40;;;;;;4941095;29;20119;-77
2023/09/07 06:01:40;;;;;;;0.10;0.10;;;22.60;79.30;;;;;;4939963;29;20079;-77
2023/09/07 06:04:06;;;;;;;0.20;0.10;;;22.60;79.50;;;;;;4960001;29;20063;-77
2023/09/07 06:06:32;;;;;;;0.00;0.00;;;22.60;79.40;;;;;;4960102;29;20035;-77
2023/09/07 06:09:00;;;;;;;0.10;0.10;;;22.70;79.60;;;;;;4959943;29;20027;-77
2023/09/07 06:11:26;;;;;;;0.10;0.10;;;22.70;79.60;;;;;;4952429;29;20067;-77
2023/09/07 06:13:52;;;;;;;0.10;0.10;;;22.70;79.40;;;;;;4940976;29;20040;-77
2023/09/07 06:16:17;;;;;;;0.00;0.00;;;22.80;79.30;;;;;;4940883;29;20090;-77
2023/09/07 06:18:44;;;;;;;0.00;0.00;;;22.80;79.40;;;;;;4940721;29;20110;-77
2023/09/07 06:21:09;;;;;;;0.10;0.10;;;22.80;79.40;;;;;;4941003;29;20151;-77
2023/09/07 06:23:35;;;;;;;0.10;0.05;;;22.80;79.50;;;;;;4941172;29;20055;-77
2023/09/07 06:26:01;;;;;;;0.10;0.10;;;22.90;79.50;;;;;;4957311;29;20032;-77
2023/09/07 06:28:27;;;;;;;0.10;0.10;;;23.00;79.30;;;;;;4959688;29;20490;-77
2023/09/07 06:30:52;;;;;;;0.10;0.10;;;23.10;79.10;;;;;;4959668;29;20098;-78
2023/09/07 06:33:18;;;;;;;0.10;0.10;;;23.20;79.10;;;;;;4948406;29;20024;-77
2023/09/07 06:35:44;;;;;;;0.10;0.10;;;23.20;78.80;;;;;;4940321;29;20039;-77
2023/09/07 06:38:10;;;;;;;0.00;0.00;;;23.30;78.80;;;;;;4940484;29;20024;-77
2023/09/07 06:40:35;;;;;;;0.10;0.10;;;23.30;78.50;;;;;;4930819;29;20557;-77
2023/09/07 06:43:05;;;;;;;0.10;0.10;;;23.30;78.50;;;;;;4923260;29;20055;-77
2023/09/07 06:45:34;;;;;;;0.00;0.00;;;23.40;78.30;;;;;;4940396;29;20041;-77
2023/09/07 06:48:00;;;;;;;0.00;0.00;;;23.50;78.20;;;;;;4923330;29;20483;-77
2023/09/07 06:50:25;;;;;;;0.10;0.10;;;23.60;78.10;;;;;;4940641;29;20062;-77
2023/09/07 06:52:51;;;;;;;0.10;0.10;;;23.60;78.00;;;;;;4940548;29;20453;-78
2023/09/07 06:55:17;;;;;;;0.03;0.03;;;23.70;77.90;;;;;;4940463;29;20046;-77
2023/09/07 06:57:42;;;;;;;0.32;0.10;;;23.70;77.80;;;;;;4940226;29;20028;-77
2023/09/07 07:00:08;;;;;;;0.10;0.10;;;23.80;77.70;;;;;;4940614;29;20107;-77
2023/09/07 07:02:34;;;;;;;0.00;0.00;;;23.80;77.20;;;;;;4947510;29;20023;-77
2023/09/07 07:05:01;;;;;;;0.00;0.00;;;23.80;76.90;;;;;;4959208;29;20046;-77
2023/09/07 07:07:26;;;;;;;0.00;0.00;;;24.00;76.80;;;;;;4942151;29;20114;-77
2023/09/07 07:09:53;;;;;;;0.00;0.00;;;24.00;76.40;;;;;;4949950;29;20703;-77
2023/09/07 07:12:20;;;;;;;0.00;0.00;;;24.10;76.10;;;;;;4940623;29;20031;-77
2023/09/07 07:14:46;;;;;;;0.03;0.03;;;24.20;75.90;;;;;;4939656;29;20035;-77
2023/09/07 07:17:12;;;;;;;0.00;0.00;;;24.30;75.50;;;;;;4931237;29;20479;-77
2023/09/07 07:19:37;;;;;;;0.08;0.08;;;24.30;75.30;;;;;;4939738;29;20031;-77
2023/09/07 07:22:03;;;;;;;0.03;0.03;;;24.50;74.80;;;;;;4944510;29;20106;-77
2023/09/07 07:24:29;;;;;;;0.10;0.10;;;24.70;74.40;;;;;;4958713;29;20031;-77
2023/09/07 07:26:54;;;;;;;0.00;0.00;;;24.90;73.60;;;;;;4941076;29;20031;-77
2023/09/07 07:29:20;;;;;;;0.10;0.10;;;25.10;72.60;;;;;;4939605;29;20039;-77
2023/09/07 07:31:46;;;;;;;0.10;0.10;;;25.10;72.60;;;;;;4940682;29;20528;-77
2023/09/07 07:34:13;;;;;;;0.20;0.20;;;25.30;72.50;;;;;;4955420;29;20035;-77
2023/09/07 07:36:38;;;;;;;0.10;0.10;;;26.20;70.20;;;;;;4947612;29;20024;-77
2023/09/07 07:39:07;;;;;;;0.17;0.17;;;27.30;66.60;;;;;;4939247;29;20063;-77
2023/09/07 07:41:33;;;;;;;0.20;0.20;;;27.80;65.10;;;;;;4971074;28;20015;-78
2023/09/07 07:43:58;;;;;;;0.10;0.10;;;27.80;64.90;;;;;;4952111;29;20038;-78
2023/09/07 07:46:24;;;;;;;0.10;0.10;;;27.80;64.80;;;;;;4921784;29;20046;-77
2023/09/07 07:48:50;;;;;;;0.10;0.10;;;27.60;65.40;;;;;;4939052;29;20542;-77
2023/09/07 07:51:15;;;;;;;0.13;0.10;;;27.30;64.80;;;;;;4958182;29;20517;-77
2023/09/07 07:53:41;;;;;;;0.10;0.10;;;27.20;66.10;;;;;;4958219;29;20097;-78
2023/09/07 07:56:15;;;;;;;0.00;0.00;;;27.00;66.20;;;;;;4946151;29;20557;-78
2023/09/07 07:58:41;;;;;;;0.10;0.10;;;26.70;66.10;;;;;;4939022;29;20024;-77
2023/09/07 08:01:14;;;;;;;0.00;0.00;;;26.70;67.10;;;;;;4937711;29;20394;-77
2023/09/07 08:03:40;;;;;;;0.00;0.00;;;26.70;67.60;;;;;;4938480;29;20467;-77
2023/09/07 08:06:06;;;;;;;0.10;0.10;;;26.70;67.10;;;;;;4941138;29;20031;-77
2023/09/07 08:08:31;;;;;;;0.10;0.10;;;26.90;67.30;;;;;;4958044;29;20102;-77
2023/09/07 08:10:58;;;;;;;0.05;0.05;;;27.10;66.90;;;;;;4944455;29;20087;-77
2023/09/07 08:13:24;;;;;;;0.08;0.08;;;27.10;66.20;;;;;;4938819;29;20035;-77
2023/09/07 08:15:49;;;;;;;0.10;0.10;;;27.40;65.90;;;;;;4936977;29;20032;-77
2023/09/07 08:18:15;;;;;;;0.10;0.00;;;27.60;65.00;;;;;;4938659;29;20036;-78
2023/09/07 08:20:41;;;;;;;0.00;0.00;;;27.80;64.10;;;;;;4937885;29;20035;-77
2023/09/07 08:23:09;;;;;;;0.00;0.00;;;28.00;64.00;;;;;;4939077;29;20020;-77
2023/09/07 08:25:35;;;;;;;0.10;0.10;;;28.20;62.80;;;;;;4950275;29;20031;-77
2023/09/07 08:28:05;;;;;;;0.10;0.10;;;28.20;63.20;;;;;;4937409;29;20045;-77
2023/09/07 08:30:30;;;;;;;0.00;0.00;;;27.90;63.60;;;;;;4936647;29;20131;-78
2023/09/07 08:32:56;;;;;;;0.13;0.10;;;27.70;64.10;;;;;;4949154;29;20066;-77
2023/09/07 08:35:26;;;;;;;0.10;0.10;;;27.50;64.60;;;;;;4957716;29;20028;-77
2023/09/07 08:37:53;;;;;;;0.10;0.10;;;27.50;65.10;;;;;;4957616;29;20035;-77
2023/09/07 08:40:19;;;;;;;0.00;0.00;;;27.50;65.70;;;;;;4945702;28;20457;-77
2023/09/07 08:42:45;;;;;;;0.10;0.10;;;27.50;65.90;;;;;;4959910;28;20039;-77
2023/09/07 08:45:15;;;;;;;0.10;0.10;;;27.50;65.80;;;;;;4976904;28;20050;-77
2023/09/07 08:47:42;;;;;;;0.10;0.10;;;27.50;65.70;;;;;;4941307;28;20027;-77
2023/09/07 08:50:10;;;;;;;0.10;0.10;;;27.60;65.50;;;;;;4938219;29;20039;-77
2023/09/07 08:52:37;;;;;;;0.10;0.10;;;27.60;66.40;;;;;;4938357;29;20024;-77
2023/09/07 08:55:06;;;;;;;0.10;0.10;;;27.80;65.90;;;;;;4938727;29;20039;-77
2023/09/07 08:57:32;;;;;;;0.10;0.10;;;27.80;66.30;;;;;;4952250;28;20617;-77
2023/09/07 08:59:58;;;;;;;0.00;0.00;;;27.80;65.50;;;;;;4961386;29;20038;-77
2023/09/07 09:02:24;;;;;;;0.00;0.00;;;27.90;65.90;;;;;;4961182;29;20090;-77
2023/09/07 09:04:52;;;;;;;0.15;0.10;;;28.00;66.10;;;;;;4944143;29;20036;-77
2023/09/07 09:07:17;;;;;;;0.10;0.10;;;28.10;65.80;;;;;;4942244;29;20581;-77
2023/09/07 09:09:44;;;;;;;0.00;0.00;;;28.20;65.30;;;;;;4942431;29;20030;-77
2023/09/07 09:12:11;;;;;;;0.17;0.10;;;28.30;65.70;;;;;;4942296;29;20036;-77
2023/09/07 09:14:37;;;;;;;0.10;0.10;;;28.40;65.80;;;;;;4944720;29;20023;-77
2023/09/07 09:17:03;;;;;;;0.10;0.10;;;28.60;64.60;;;;;;4961113;29;20038;-77
2023/09/07 09:19:33;;;;;;;0.10;0.10;;;28.80;64.30;;;;;;4949965;29;20099;-77
2023/09/07 09:21:59;;;;;;;0.10;0.10;;;28.80;63.50;;;;;;4954612;29;20094;-77
2023/09/07 09:24:24;;;;;;;0.10;0.10;;;28.90;63.70;;;;;;4943991;29;20498;-77
2023/09/07 09:26:50;;;;;;;0.00;0.00;;;28.80;64.20;;;;;;4930091;29;20035;-77
2023/09/07 09:29:16;;;;;;;0.10;0.10;;;28.80;63.70;;;;;;4942104;29;20031;-78
2023/09/07 09:31:43;;;;;;;0.10;0.10;;;28.80;64.70;;;;;;4942438;29;20515;-77
2023/09/07 09:34:08;;;;;;;0.20;0.10;;;28.80;65.00;;;;;;4960675;29;20573;-77
2023/09/07 09:36:36;;;;;;;0.13;0.08;;;28.90;64.70;;;;;;4944652;29;20099;-77
2023/09/07 09:39:05;;;;;;;0.00;0.00;;;29.00;65.10;;;;;;4941732;29;20051;-76
2023/09/07 09:41:33;;;;;;;0.00;0.00;;;29.00;65.50;;;;;;4937213;29;20095;-76
2023/09/07 09:44:00;;;;;;;0.00;0.00;;;28.90;64.80;;;;;;4924801;29;20490;-77
2023/09/07 09:46:27;;;;;;;0.00;0.00;;;28.90;64.50;;;;;;4941622;29;20039;-77
2023/09/07 09:48:55;;;;;;;0.00;0.00;;;29.00;65.10;;;;;;4941366;29;20767;-77
2023/09/07 09:51:22;;;;;;;0.10;0.10;;;29.00;63.50;;;;;;4941460;29;20047;-77
2023/09/07 09:53:49;;;;;;;0.10;0.10;;;29.10;64.50;;;;;;4941655;29;20043;-76
2023/09/07 09:56:15;;;;;;;0.15;0.10;;;29.10;63.60;;;;;;4941430;29;20112;-76
2023/09/07 09:58:40;;;;;;;0.10;0.10;;;29.20;62.70;;;;;;4941288;29;20023;-77
2023/09/07 10:01:08;;;;;;;0.00;0.00;;;29.20;62.50;;;;;;4924658;29;20031;-77
2023/09/07 10:03:44;;;;;;;0.10;0.10;;;29.30;63.70;;;;;;4956951;29;20024;-77
2023/09/07 10:06:20;;;;;;;0.10;0.10;;;29.30;63.90;;;;;;4960339;29;20016;-77
2023/09/07 10:08:59;;;;;;;0.10;0.10;;;29.30;62.50;;;;;;4954324;29;20051;-77
2023/09/07 10:11:39;;;;;;;0.10;0.10;;;29.40;61.30;;;;;;4940935;29;20024;-77
2023/09/07 10:14:07;;;;;;;0.00;0.00;;;29.40;60.70;;;;;;4940977;29;20079;-76
2023/09/07 10:16:52;;;;;;;0.10;0.10;;;29.50;60.00;;;;;;4929637;29;20035;-78
2023/09/07 10:19:19;;;;;;;0.00;0.00;;;29.60;60.70;;;;;;4952758;29;20031;-77
2023/09/07 10:21:46;;;;;;;0.00;0.00;;;29.60;60.00;;;;;;4959998;29;20024;-77
2023/09/07 10:24:11;;;;;;;0.10;0.10;;;29.60;59.90;;;;;;4942759;29;20038;-77
2023/09/07 10:26:37;;;;;;;0.10;0.10;;;29.70;60.20;;;;;;4939056;29;20028;-77
2023/09/07 10:29:05;;;;;;;0.00;0.00;;;29.80;60.30;;;;;;4940726;29;20031;-77
2023/09/07 10:31:31;;;;;;;0.00;0.00;;;29.80;59.30;;;;;;4938931;29;20062;-78
2023/09/07 10:34:09;;;;;;;0.03;0.03;;;29.80;58.80;;;;;;4959554;29;20027;-78
2023/09/07 10:36:37;;;;;;;0.10;0.10;;;29.90;58.70;;;;;;4953600;29;20024;-77
2023/09/07 10:39:04;;;;;;;0.10;0.10;;;30.00;58.50;;;;;;4923665;29;20498;-78
2023/09/07 10:41:41;;;;;;;0.00;0.00;;;30.10;58.60;;;;;;4954206;28;20031;-76
2023/09/07 10:44:07;;;;;;;0.10;0.10;;;30.20;57.80;;;;;;4965302;28;20028;-77
2023/09/07 10:46:32;;;;;;;0.00;0.00;;;30.20;58.50;;;;;;4940256;29;20486;-75
2023/09/07 10:48:59;;;;;;;0.05;0.05;;;30.30;58.90;;;;;;4923207;29;20028;-76
2023/09/07 10:51:24;;;;;;;0.03;0.03;;;30.30;58.60;;;;;;4940304;29;20395;-80
2023/09/07 10:53:50;;;;;;;0.00;0.00;;;30.30;56.30;;;;;;4940277;29;20123;-78
2023/09/07 10:56:16;;;;;;;0.10;0.05;;;30.30;58.20;;;;;;4940611;29;20027;-78
2023/09/07 10:58:42;;;;;;;0.10;0.10;;;30.40;58.60;;;;;;4940149;29;20031;-78
2023/09/07 11:01:09;;;;;;;0.03;0.03;;;30.40;56.00;;;;;;4955627;29;20062;-78
2023/09/07 11:03:36;;;;;;;0.10;0.10;;;30.50;56.80;;;;;;4938307;29;20039;-78
2023/09/07 11:06:12;;;;;;;0.00;0.00;;;30.60;56.60;;;;;;4940026;29;20075;-77
2023/09/07 11:08:37;;;;;;;0.10;0.10;;;30.70;54.90;;;;;;4941051;29;20028;-78
2023/09/07 11:11:04;;;;;;;0.03;0.03;;;30.80;56.30;;;;;;4955481;29;20062;-81
2023/09/07 11:13:29;;;;;;;0.10;0.10;;;30.80;56.30;;;;;;4959429;29;20035;-81
2023/09/07 11:15:57;;;;;;;0.10;0.10;;;30.90;57.00;;;;;;4942597;29;20039;-81
2023/09/07 11:18:23;;;;;;;0.00;0.00;;;31.10;56.30;;;;;;4922572;29;20038;-82
2023/09/07 11:20:50;;;;;;;0.00;0.00;;;31.20;54.20;;;;;;4948876;28;20027;-84
2023/09/07 11:23:18;;;;;;;0.05;0.05;;;31.20;53.30;;;;;;4940934;29;20024;-82
2023/09/07 11:25:43;;;;;;;0.00;0.00;;;31.10;53.20;;;;;;4954172;29;20100;-85
2023/09/07 11:28:11;;;;;;;0.05;0.05;;;31.10;53.70;;;;;;4938999;29;20039;-86
2023/09/07 11:30:37;;;;;;;0.10;0.10;;;31.20;55.00;;;;;;4960729;29;20070;-92
2023/09/07 11:33:06;;;;;;;0.00;0.00;;;31.20;55.90;;;;;;4943973;29;20128;-95
2023/09/07 11:35:33;;;;;;;0.10;0.10;;;31.30;55.10;;;;;;4943383;29;20032;-93
2023/09/07 11:38:04;;;;;;;0.10;0.10;;;31.30;56.30;;;;;;4943135;29;20020;-91
2023/09/07 11:40:30;;;;;;;0.00;0.00;;;31.30;55.30;;;;;;4942271;29;20019;-93
2023/09/07 11:42:56;;;;;;;0.10;0.10;;;31.30;54.90;;;;;;4941981;29;20027;-89
2023/09/07 11:45:22;;;;;;;0.00;0.00;;;31.50;54.00;;;;;;4942829;29;20548;-93
2023/09/07 11:47:48;;;;;;;0.10;0.10;;;31.50;54.30;;;;;;4942051;29;20131;-93
2023/09/07 11:50:16;;;;;;;0.20;0.10;;;31.50;54.30;;;;;;4942110;29;20027;-89
2023/09/07 11:52:42;;;;;;;0.00;0.00;;;31.60;54.40;;;;;;4937789;29;20047;-87
2023/09/07 11:55:10;;;;;;;0.25;0.10;;;31.60;54.60;;;;;;4939829;29;20023;-87
2023/09/07 11:57:36;;;;;;;0.10;0.10;;;31.50;54.90;;;;;;4922666;29;20631;-86
2023/09/07 12:00:02;;;;;;;0.08;0.00;;;31.70;54.30;;;;;;4940203;29;20398;-87
2023/09/07 12:02:28;;;;;;;0.00;0.00;;;31.80;53.30;;;;;;4946221;29;20035;-86
2023/09/07 12:04:54;;;;;;;0.10;0.10;;;31.80;55.30;;;;;;4952743;29;20035;-86
2023/09/07 12:07:20;;;;;;;0.52;0.10;;;31.90;53.20;;;;;;4922624;29;20035;-86
2023/09/07 12:09:45;;;;;;;0.05;0.05;;;31.90;52.50;;;;;;4939534;29;20052;-86
2023/09/07 12:12:11;;;;;;;0.00;0.00;;;32.00;52.10;;;;;;4939595;29;20032;-87
2023/09/07 12:14:36;;;;;;;0.10;0.10;;;32.00;51.00;;;;;;4922584;29;20431;-86
2023/09/07 12:17:03;;;;;;;0.00;0.00;;;32.00;50.80;;;;;;4939766;29;20028;-85
2023/09/07 12:19:29;;;;;;;0.00;0.00;;;32.00;52.20;;;;;;4937408;29;20016;-85
2023/09/07 12:21:55;;;;;;;0.00;0.00;;;31.90;51.70;;;;;;4939391;29;20043;-86
2023/09/07 12:24:21;;;;;;;0.10;0.10;;;31.90;53.00;;;;;;4942237;29;20245;-85
2023/09/07 12:26:46;;;;;;;0.00;0.00;;;31.80;50.20;;;;;;4937103;29;20043;-90
2023/09/07 12:29:13;;;;;;;0.13;0.10;;;31.80;50.70;;;;;;4937423;29;20031;-88
2023/09/07 12:31:38;;;;;;;0.00;0.00;;;31.80;51.80;;;;;;4938944;29;20055;-85
2023/09/07 12:34:04;;;;;;;0.10;0.10;;;31.90;51.60;;;;;;4936451;29;20035;-88
2023/09/07 12:36:30;;;;;;;0.00;0.00;;;32.10;51.00;;;;;;4938918;29;20173;-89
2023/09/07 12:39:04;;;;;;;0.32;0.15;;;32.20;51.70;;;;;;4921809;29;20628;-88
2023/09/07 12:41:33;;;;;;;0.00;0.00;;;32.20;50.90;;;;;;4924633;29;20095;-88
2023/09/07 12:43:58;;;;;;;0.00;0.00;;;32.30;50.20;;;;;;4938549;29;20023;-87
2023/09/07 12:46:24;;;;;;;0.00;0.00;;;32.30;51.00;;;;;;4938416;29;20546;-87
2023/09/07 12:48:50;;;;;;;0.10;0.10;;;32.30;50.50;;;;;;4933322;29;20027;-88
2023/09/07 12:51:16;;;;;;;0.00;0.00;;;32.30;50.60;;;;;;4937372;29;20032;-87
2023/09/07 12:53:41;;;;;;;0.10;0.10;;;32.20;49.90;;;;;;4937392;29;20088;-88
2023/09/07 12:56:07;;;;;;;0.10;0.10;;;32.30;49.40;;;;;;4938484;29;20027;-87
2023/09/07 12:58:33;;;;;;;0.00;0.00;;;32.30;49.50;;;;;;4949378;29;20489;-82
2023/09/07 13:00:58;;;;;;;0.10;0.10;;;32.40;49.30;;;;;;4957767;29;20479;-81
2023/09/07 13:03:24;;;;;;;0.03;0.03;;;32.60;48.50;;;;;;4957217;29;20028;-88
2023/09/07 13:05:50;;;;;;;0.00;0.00;;;32.70;48.90;;;;;;4951226;29;20450;-81
2023/09/07 13:08:15;;;;;;;0.10;0.10;;;32.80;49.80;;;;;;4957678;29;20016;-81
2023/09/07 13:10:41;;;;;;;0.00;0.00;;;32.70;49.10;;;;;;4952956;29;20028;-81
2023/09/07 13:13:07;;;;;;;0.00;0.00;;;32.80;49.50;;;;;;4938134;29;20059;-81
2023/09/07 13:15:33;;;;;;;0.10;0.10;;;32.70;49.70;;;;;;4938422;29;20027;-82
2023/09/07 13:17:59;;;;;;;0.00;0.00;;;32.80;49.10;;;;;;4938010;29;20047;-81
2023/09/07 13:20:25;;;;;;;0.10;0.10;;;32.80;48.30;;;;;;4940018;29;20019;-81
2023/09/07 13:22:51;;;;;;;0.00;0.00;;;32.60;48.90;;;;;;4938845;29;20111;-82
2023/09/07 13:25:17;;;;;;;0.10;0.10;;;32.30;49.00;;;;;;4949217;29;20446;-81
2023/09/07 13:27:43;;;;;;;0.10;0.10;;;32.00;49.70;;;;;;4943064;29;20032;-81
2023/09/07 13:30:09;;;;;;;0.10;0.10;;;32.10;50.00;;;;;;4936840;29;20075;-81
2023/09/07 13:32:35;;;;;;;0.05;0.05;;;32.20;49.20;;;;;;4928826;29;20111;-82
2023/09/07 13:35:00;;;;;;;0.00;0.00;;;32.10;49.60;;;;;;4937211;29;20126;-82
2023/09/07 13:37:26;;;;;;;0.00;0.00;;;32.00;48.80;;;;;;4940114;29;20023;-82
2023/09/07 13:39:52;;;;;;;0.05;0.05;;;31.90;48.10;;;;;;4953813;28;20035;-80
2023/09/07 13:42:17;;;;;;;0.00;0.00;;;31.80;48.50;;;;;;4976711;28;20027;-81
2023/09/07 13:44:45;;;;;;;0.00;0.00;;;31.80;48.60;;;;;;4978001;28;20050;-81
2023/09/07 13:47:11;;;;;;;0.00;0.00;;;31.80;48.80;;;;;;4938214;29;20035;-81
2023/09/07 13:49:37;;;;;;;0.10;0.10;;;31.90;48.60;;;;;;4941421;29;20032;-82
2023/09/07 13:52:03;;;;;;;0.10;0.10;;;32.00;47.90;;;;;;4941874;29;20131;-82
2023/09/07 13:54:28;;;;;;;0.10;0.10;;;32.00;46.80;;;;;;4924577;29;20430;-82
2023/09/07 13:56:54;;;;;;;0.15;0.10;;;32.30;47.40;;;;;;4941783;29;20099;-82
2023/09/07 13:59:20;;;;;;;0.10;0.10;;;32.40;45.50;;;;;;4941411;29;20104;-82
2023/09/07 14:01:46;;;;;;;0.00;0.00;;;32.60;45.50;;;;;;4943140;29;20027;-81
2023/09/07 14:04:11;;;;;;;0.00;0.00;;;32.60;43.70;;;;;;4960420;29;20031;-82
2023/09/07 14:06:37;;;;;;;0.10;0.10;;;32.60;44.20;;;;;;4956023;29;20024;-82
2023/09/07 14:09:03;;;;;;;0.10;0.10;;;32.50;44.10;;;;;;4941526;29;20028;-81
2023/09/07 14:11:28;;;;;;;0.00;0.00;;;32.50;43.40;;;;;;4924173;29;20031;-81
2023/09/07 14:13:54;;;;;;;0.10;0.10;;;32.60;44.20;;;;;;4940417;29;20450;-82
2023/09/07 14:16:21;;;;;;;0.03;0.03;;;32.60;45.60;;;;;;4941815;29;21249;-82
2023/09/07 14:18:47;;;;;;;0.10;0.10;;;32.70;45.40;;;;;;4940928;29;20024;-81
2023/09/07 14:21:16;;;;;;;0.00;0.00;;;33.00;46.20;;;;;;4924440;29;20024;-82
2023/09/07 14:23:43;;;;;;;0.10;0.10;;;33.20;46.00;;;;;;4941170;29;20036;-82
2023/09/07 14:26:08;;;;;;;0.08;0.08;;;33.30;46.20;;;;;;4958891;29;20585;-82
2023/09/07 14:28:35;;;;;;;0.00;0.00;;;33.40;45.20;;;;;;4960281;29;20074;-82
2023/09/07 14:31:03;;;;;;;0.00;0.00;;;33.50;44.50;;;;;;4956926;29;20946;-82
2023/09/07 14:33:29;;;;;;;0.10;0.10;;;33.40;44.60;;;;;;4955995;29;20066;-82
2023/09/07 14:35:55;;;;;;;0.00;0.00;;;33.30;45.70;;;;;;4959817;29;20023;-82
2023/09/07 14:38:23;;;;;;;0.10;0.10;;;33.10;45.30;;;;;;4959784;29;20035;-82
2023/09/07 14:40:49;;;;;;;0.00;0.00;;;32.90;46.70;;;;;;4940172;29;20027;-82
2023/09/07 14:43:16;;;;;;;0.00;0.00;;;32.70;46.40;;;;;;4940851;29;20036;-81
2023/09/07 14:45:42;;;;;;;0.10;0.00;;;32.60;46.60;;;;;;4923626;29;20035;-82
2023/09/07 14:48:08;;;;;;;0.05;0.05;;;32.50;46.80;;;;;;4940312;29;20032;-82
2023/09/07 14:50:34;;;;;;;0.10;0.10;;;32.50;47.20;;;;;;4908089;29;20237;-81
2023/09/07 14:52:59;;;;;;;0.05;0.05;;;32.60;46.80;;;;;;4956144;29;20427;-82
2023/09/07 14:55:25;;;;;;;0.10;0.05;;;32.70;46.70;;;;;;4955116;28;20510;-82
2023/09/07 14:57:51;;;;;;;0.00;0.00;;;32.60;45.70;;;;;;4939286;29;20032;-82
2023/09/07 15:00:17;;;;;;;0.00;0.00;;;32.50;45.40;;;;;;4940319;29;20020;-82
2023/09/07 15:02:42;;;;;;;0.10;0.10;;;32.30;45.30;;;;;;4928692;29;20277;-82
2023/09/07 15:05:08;;;;;;;0.00;0.00;;;32.20;46.20;;;;;;4940229;29;20059;-82
2023/09/07 15:07:34;;;;;;;0.10;0.10;;;32.20;46.20;;;;;;4923224;29;20028;-82
2023/09/07 15:09:59;;;;;;;0.00;0.00;;;32.20;46.50;;;;;;4949849;29;20066;-82
2023/09/07 15:12:25;;;;;;;0.00;0.00;;;32.30;47.20;;;;;;4958591;29;20082;-81
2023/09/07 15:14:52;;;;;;;0.10;0.10;;;32.50;45.20;;;;;;4958756;29;20482;-82
2023/09/07 15:17:18;;;;;;;0.00;0.00;;;32.60;46.20;;;;;;4958233;29;20030;-82
2023/09/07 15:19:43;;;;;;;0.10;0.00;;;32.70;46.30;;;;;;4940183;29;20024;-82
2023/09/07 15:22:09;;;;;;;0.00;0.00;;;32.80;46.30;;;;;;4940240;29;20106;-82
2023/09/07 15:24:35;;;;;;;0.00;0.00;;;32.80;45.20;;;;;;4934054;29;20402;-82
2023/09/07 15:27:11;;;;;;;0.00;0.00;;;32.70;45.20;;;;;;4958935;29;20031;-81
2023/09/07 15:29:38;;;;;;;0.10;0.10;;;32.70;45.30;;;;;;4938365;29;20027;-81
2023/09/07 15:32:05;;;;;;;0.00;0.00;;;32.60;45.80;;;;;;4943302;29;20059;-82
2023/09/07 15:34:31;;;;;;;0.00;0.00;;;32.60;45.20;;;;;;4941837;29;20517;-81
2023/09/07 15:36:57;;;;;;;0.00;0.00;;;32.50;45.00;;;;;;4958339;29;20075;-81
2023/09/07 15:39:23;;;;;;;0.00;0.00;;;32.50;44.50;;;;;;4939777;29;20023;-81
2023/09/07 15:41:48;;;;;;;0.00;0.00;;;32.50;44.10;;;;;;4967236;28;20378;-81
2023/09/07 15:44:14;;;;;;;0.00;0.00;;;32.40;44.10;;;;;;4941830;29;20031;-81
2023/09/07 15:46:41;;;;;;;0.03;0.03;;;32.30;45.10;;;;;;4958485;29;20039;-81
2023/09/07 15:49:08;;;;;;;0.00;0.00;;;32.30;46.90;;;;;;4939777;29;20031;-81
2023/09/07 15:51:33;;;;;;;0.00;0.00;;;32.20;48.20;;;;;;4939491;29;20032;-79
2023/09/07 15:53:59;;;;;;;0.00;0.00;;;32.10;48.50;;;;;;4939325;29;20028;-82
2023/09/07 15:56:24;;;;;;;0.03;0.03;;;32.10;49.00;;;;;;4938019;29;20058;-82
2023/09/07 15:58:50;;;;;;;0.05;0.00;;;32.00;48.90;;;;;;4944467;28;20031;-83
2023/09/07 16:01:16;;;;;;;0.00;0.00;;;31.90;49.20;;;;;;4974478;28;20071;-83
2023/09/07 16:03:41;;;;;;;0.00;0.00;;;31.90;49.30;;;;;;4938083;29;20111;-84
2023/09/07 16:06:07;;;;;;;0.13;0.10;;;31.90;49.50;;;;;;4955037;28;20038;-86
2023/09/07 16:08:33;;;;;;;0.00;0.00;;;31.90;49.70;;;;;;4957850;29;20038;-82
2023/09/07 16:11:00;;;;;;;0.00;0.00;;;31.80;49.70;;;;;;4935486;29;20111;-82
2023/09/07 16:13:26;;;;;;;0.10;0.03;;;31.80;50.10;;;;;;4935802;29;20569;-84
2023/09/07 16:15:52;;;;;;;0.10;0.10;;;31.80;51.20;;;;;;4933485;29;20031;-78
2023/09/07 16:18:19;;;;;;;0.00;0.00;;;31.80;51.70;;;;;;4945838;28;20037;-81
2023/09/07 16:20:46;;;;;;;0.10;0.10;;;31.80;51.20;;;;;;4951207;28;20564;-88
2023/09/07 16:23:12;;;;;;;0.10;0.00;;;31.80;51.30;;;;;;4939579;29;20030;-87
2023/09/07 16:25:47;;;;;;;0.03;0.03;;;31.80;51.10;;;;;;4949797;28;20032;-83
2023/09/07 16:28:13;;;;;;;0.00;0.00;;;31.70;51.00;;;;;;4935892;29;20114;-83
2023/09/07 16:30:39;;;;;;;0.00;0.00;;;31.60;51.30;;;;;;4932015;29;20118;-83
2023/09/07 16:33:05;;;;;;;0.00;0.00;;;31.60;51.50;;;;;;4953348;29;20039;-81
2023/09/07 16:35:30;;;;;;;0.00;0.00;;;31.50;52.70;;;;;;4951016;28;20027;-82
2023/09/07 16:37:56;;;;;;;0.00;0.00;;;31.50;52.30;;;;;;4949453;29;20173;-81
2023/09/07 16:40:21;;;;;;;0.03;0.03;;;31.40;53.30;;;;;;4949336;28;20027;-81
2023/09/07 16:42:47;;;;;;;0.20;0.10;;;31.40;53.90;;;;;;4932005;29;20034;-81
2023/09/07 16:45:13;;;;;;;0.00;0.00;;;31.40;53.60;;;;;;4948005;29;20322;-81
2023/09/07 16:47:38;;;;;;;0.00;0.00;;;31.30;53.20;;;;;;4952411;28;20027;-81
2023/09/07 16:50:05;;;;;;;0.05;0.00;;;31.30;52.80;;;;;;4951963;29;20042;-81
2023/09/07 16:52:31;;;;;;;0.00;0.00;;;31.20;53.30;;;;;;4933397;29;20578;-81
2023/09/07 16:55:00;;;;;;;0.00;0.00;;;31.20;54.00;;;;;;4935229;29;20039;-81
2023/09/07 16:57:27;;;;;;;0.00;0.00;;;31.20;55.00;;;;;;4947250;29;20026;-81
2023/09/07 16:59:53;;;;;;;0.00;0.00;;;31.10;55.20;;;;;;4948804;28;20051;-82
2023/09/07 17:02:19;;;;;;;0.00;0.00;;;31.00;56.10;;;;;;4952732;29;20022;-79
2023/09/07 17:04:44;;;;;;;0.00;0.00;;;30.90;56.00;;;;;;4955291;28;20070;-82
2023/09/07 17:07:10;;;;;;;0.00;0.00;;;30.90;55.80;;;;;;4939714;29;20027;-85
2023/09/07 17:09:36;;;;;;;0.10;0.10;;;30.80;56.00;;;;;;4936426;29;20413;-84
2023/09/07 17:12:05;;;;;;;0.00;0.00;;;30.80;56.70;;;;;;4940269;29;20561;-83
2023/09/07 17:14:31;;;;;;;0.00;0.00;;;30.80;57.60;;;;;;4942181;29;20026;-84